createdAt,value
2018-07-28T00:00:01.559Z,21.16
2018-07-28T00:00:05.458Z,21.16
2018-07-28T00:00:09.660Z,21.16
2018-07-28T00:00:13.766Z,21.16
2018-07-28T00:00:17.972Z,21.16
2018-07-28T00:00:22.178Z,21.16
2018-07-28T00:00:26.174Z,21.16
2018-07-28T00:00:30.386Z,21.16
2018-07-28T00:00:34.713Z,21.16
2018-07-28T00:00:38.929Z,21.16
2018-07-28T00:00:43.237Z,21.16
2018-07-28T00:00:47.448Z,21.16
2018-07-28T00:00:51.657Z,21.16
2018-07-28T00:00:55.863Z,21.16
2018-07-28T00:01:00.074Z,21.16
2018-07-28T00:01:04.284Z,21.16
2018-07-28T00:01:08.488Z,21.16
2018-07-28T00:01:12.581Z,21.17
2018-07-28T00:01:16.900Z,21.15
2018-07-28T00:01:21.001Z,21.16
2018-07-28T00:01:25.206Z,21.16
2018-07-28T00:01:29.090Z,21.16
2018-07-28T00:01:33.082Z,21.17
2018-07-28T00:01:37.398Z,21.17
2018-07-28T00:01:41.495Z,21.17
2018-07-28T00:01:45.609Z,21.17
2018-07-28T00:01:49.813Z,21.16
2018-07-28T00:01:54.180Z,21.17
2018-07-28T00:01:58.379Z,21.17
2018-07-28T00:02:02.583Z,21.17
2018-07-28T00:02:06.801Z,21.17
2018-07-28T00:02:10.897Z,21.17
2018-07-28T00:02:15.100Z,21.17
2018-07-28T00:02:19.092Z,21.17
2018-07-28T00:02:23.306Z,21.18
2018-07-28T00:02:27.646Z,21.17
2018-07-28T00:02:31.747Z,21.17
2018-07-28T00:02:35.948Z,21.18
2018-07-28T00:02:40.266Z,21.18
2018-07-28T00:02:44.467Z,21.18
2018-07-28T00:02:48.770Z,21.17
2018-07-28T00:02:53.091Z,21.17
2018-07-28T00:02:57.186Z,21.18
2018-07-28T00:03:01.385Z,21.17
2018-07-28T00:03:05.489Z,21.17
2018-07-28T00:03:09.699Z,21.17
2018-07-28T00:03:13.904Z,21.17
2018-07-28T00:03:18.106Z,21.18
2018-07-28T00:03:22.431Z,21.18
2018-07-28T00:03:26.535Z,21.18
2018-07-28T00:03:30.735Z,21.19
2018-07-28T00:03:34.831Z,21.19
2018-07-28T00:03:38.936Z,21.19
2018-07-28T00:03:42.934Z,21.19
2018-07-28T00:03:47.142Z,21.19
2018-07-28T00:03:51.456Z,21.18
2018-07-28T00:03:55.452Z,21.18
2018-07-28T00:03:59.774Z,21.19
2018-07-28T00:04:03.873Z,21.18
2018-07-28T00:04:08.086Z,21.18
2018-07-28T00:04:12.293Z,21.18
2018-07-28T00:04:16.610Z,21.18
2018-07-28T00:04:20.820Z,21.18
2018-07-28T00:04:25.021Z,21.18
2018-07-28T00:04:29.250Z,21.18
2018-07-28T00:04:33.464Z,21.17
2018-07-28T00:04:37.773Z,21.18
2018-07-28T00:04:42.088Z,21.18
2018-07-28T00:04:46.184Z,21.17
2018-07-28T00:04:50.395Z,21.17
2018-07-28T00:04:54.489Z,21.17
2018-07-28T00:04:58.587Z,21.18
2018-07-28T00:05:02.798Z,21.17
2018-07-28T00:05:07.008Z,21.17
2018-07-28T00:05:11.221Z,21.18
2018-07-28T00:05:15.533Z,21.17
2018-07-28T00:05:19.735Z,21.17
2018-07-28T00:05:24.039Z,21.17
2018-07-28T00:05:28.257Z,21.16
2018-07-28T00:05:32.564Z,21.17
2018-07-28T00:05:36.552Z,21.16
2018-07-28T00:05:40.862Z,21.16
2018-07-28T00:05:45.070Z,21.16
2018-07-28T00:05:49.270Z,21.15
2018-07-28T00:05:53.574Z,21.15
2018-07-28T00:05:57.886Z,21.16
2018-07-28T00:06:02.118Z,21.16
2018-07-28T00:06:06.357Z,21.16
2018-07-28T00:06:10.684Z,21.15
2018-07-28T00:06:14.891Z,21.14
2018-07-28T00:06:19.197Z,21.14
2018-07-28T00:06:23.289Z,21.14
2018-07-28T00:06:27.490Z,21.14
2018-07-28T00:06:31.793Z,21.13
2018-07-28T00:06:35.907Z,21.13
2018-07-28T00:06:40.008Z,21.14
2018-07-28T00:06:44.319Z,21.13
2018-07-28T00:06:48.523Z,21.12
2018-07-28T00:06:52.625Z,21.12
2018-07-28T00:06:56.931Z,21.12
2018-07-28T00:07:01.134Z,21.12
2018-07-28T00:07:05.345Z,21.12
2018-07-28T00:07:09.456Z,21.11
2018-07-28T00:07:13.656Z,21.11
2018-07-28T00:07:17.981Z,21.1
2018-07-28T00:07:22.192Z,21.1
2018-07-28T00:07:26.405Z,21.09
2018-07-28T00:07:30.502Z,21.1
2018-07-28T00:07:34.598Z,21.09
2018-07-28T00:07:38.801Z,21.09
2018-07-28T00:07:43.010Z,21.09
2018-07-28T00:07:47.321Z,21.09
2018-07-28T00:07:51.526Z,21.09
2018-07-28T00:07:55.733Z,21.08
2018-07-28T00:08:00.083Z,21.08
2018-07-28T00:08:04.286Z,21.08
2018-07-28T00:08:08.598Z,21.07
2018-07-28T00:08:12.795Z,21.07
2018-07-28T00:08:16.796Z,21.05
2018-07-28T00:08:21.112Z,21.06
2018-07-28T00:08:25.314Z,21.06
2018-07-28T00:08:29.410Z,21.05
2018-07-28T00:08:33.619Z,21.05
2018-07-28T00:08:38.018Z,21.05
2018-07-28T00:08:42.345Z,21.05
2018-07-28T00:08:46.554Z,21.04
2018-07-28T00:08:50.828Z,21.04
2018-07-28T00:08:55.035Z,21.03
2018-07-28T00:08:59.126Z,21.03
2018-07-28T00:09:03.345Z,21.02
2018-07-28T00:09:07.550Z,21.02
2018-07-28T00:09:11.855Z,21.02
2018-07-28T00:09:15.847Z,21.02
2018-07-28T00:09:20.053Z,21.02
2018-07-28T00:09:24.369Z,21.02
2018-07-28T00:09:28.358Z,21.02
2018-07-28T00:09:32.351Z,21.01
2018-07-28T00:09:36.672Z,21.01
2018-07-28T00:09:40.777Z,21
2018-07-28T00:09:44.984Z,21
2018-07-28T00:09:49.192Z,21.01
2018-07-28T00:09:53.394Z,20.99
2018-07-28T00:09:57.602Z,20.99
2018-07-28T00:10:01.902Z,20.99
2018-07-28T00:10:06.006Z,21
2018-07-28T00:10:10.316Z,20.99
2018-07-28T00:10:14.417Z,20.98
2018-07-28T00:10:18.739Z,21
2018-07-28T00:10:23.048Z,20.99
2018-07-28T00:10:27.257Z,20.99
2018-07-28T00:10:31.457Z,20.98
2018-07-28T00:10:35.548Z,20.99
2018-07-28T00:10:39.862Z,20.98
2018-07-28T00:10:44.063Z,20.98
2018-07-28T00:10:48.268Z,20.98
2018-07-28T00:10:52.372Z,20.98
2018-07-28T00:10:56.573Z,20.98
2018-07-28T00:11:00.884Z,20.98
2018-07-28T00:11:04.987Z,20.98
2018-07-28T00:11:09.201Z,20.97
2018-07-28T00:11:13.508Z,20.98
2018-07-28T00:11:17.711Z,20.98
2018-07-28T00:11:21.920Z,20.98
2018-07-28T00:11:25.908Z,20.97
2018-07-28T00:11:30.111Z,20.98
2018-07-28T00:11:34.101Z,20.97
2018-07-28T00:11:38.423Z,20.97
2018-07-28T00:11:42.738Z,20.97
2018-07-28T00:11:47.052Z,20.97
2018-07-28T00:11:51.154Z,20.97
2018-07-28T00:11:55.143Z,20.98
2018-07-28T00:11:59.344Z,20.98
2018-07-28T00:12:03.450Z,20.97
2018-07-28T00:12:07.655Z,20.97
2018-07-28T00:12:11.657Z,20.97
2018-07-28T00:12:15.882Z,20.97
2018-07-28T00:12:19.976Z,20.97
2018-07-28T00:12:24.179Z,20.97
2018-07-28T00:12:28.489Z,20.97
2018-07-28T00:12:32.798Z,20.97
2018-07-28T00:12:37.002Z,20.97
2018-07-28T00:12:41.099Z,20.98
2018-07-28T00:12:45.201Z,20.98
2018-07-28T00:12:49.511Z,20.97
2018-07-28T00:12:53.827Z,20.97
2018-07-28T00:12:58.150Z,20.97
2018-07-28T00:13:02.463Z,20.98
2018-07-28T00:13:06.789Z,20.98
2018-07-28T00:13:11.102Z,20.97
2018-07-28T00:13:15.322Z,20.97
2018-07-28T00:13:19.424Z,20.97
2018-07-28T00:13:23.625Z,20.98
2018-07-28T00:13:27.729Z,20.98
2018-07-28T00:13:32.047Z,20.97
2018-07-28T00:13:36.142Z,20.98
2018-07-28T00:13:40.456Z,20.99
2018-07-28T00:13:44.661Z,20.99
2018-07-28T00:13:48.861Z,20.98
2018-07-28T00:13:53.068Z,20.98
2018-07-28T00:13:57.376Z,20.98
2018-07-28T00:14:01.687Z,20.99
2018-07-28T00:14:05.782Z,20.99
2018-07-28T00:14:10.097Z,20.99
2018-07-28T00:14:14.301Z,21
2018-07-28T00:14:18.623Z,21
2018-07-28T00:14:22.937Z,20.99
2018-07-28T00:14:27.247Z,21
2018-07-28T00:14:31.558Z,21
2018-07-28T00:14:35.653Z,21
2018-07-28T00:14:39.747Z,20.99
2018-07-28T00:14:43.944Z,20.99
2018-07-28T00:14:48.147Z,20.99
2018-07-28T00:14:52.459Z,20.99
2018-07-28T00:14:56.777Z,20.99
2018-07-28T00:15:00.990Z,21
2018-07-28T00:15:04.984Z,21
2018-07-28T00:15:09.187Z,21
2018-07-28T00:15:13.393Z,21
2018-07-28T00:15:17.599Z,20.99
2018-07-28T00:15:21.915Z,21
2018-07-28T00:15:26.024Z,21
2018-07-28T00:15:30.330Z,21.01
2018-07-28T00:15:34.547Z,20.99
2018-07-28T00:15:38.747Z,21
2018-07-28T00:15:42.988Z,21
2018-07-28T00:15:47.089Z,21
2018-07-28T00:15:51.184Z,20.99
2018-07-28T00:15:55.391Z,20.99
2018-07-28T00:15:59.603Z,21
2018-07-28T00:16:03.806Z,21
2018-07-28T00:16:07.696Z,21
2018-07-28T00:16:11.791Z,20.99
2018-07-28T00:16:16.106Z,20.99
2018-07-28T00:16:20.200Z,20.99
2018-07-28T00:16:24.421Z,20.98
2018-07-28T00:16:28.413Z,20.99
2018-07-28T00:16:32.617Z,20.99
2018-07-28T00:16:36.967Z,20.99
2018-07-28T00:16:41.171Z,20.99
2018-07-28T00:16:45.265Z,20.99
2018-07-28T00:16:49.462Z,20.98
2018-07-28T00:16:53.561Z,20.99
2018-07-28T00:16:57.769Z,20.99
2018-07-28T00:17:02.124Z,20.98
2018-07-28T00:17:06.333Z,20.98
2018-07-28T00:17:10.530Z,20.98
2018-07-28T00:17:14.838Z,20.98
2018-07-28T00:17:18.727Z,20.98
2018-07-28T00:17:23.043Z,20.98
2018-07-28T00:17:27.355Z,20.98
2018-07-28T00:17:31.455Z,20.97
2018-07-28T00:17:35.658Z,20.98
2018-07-28T00:17:39.543Z,20.98
2018-07-28T00:17:43.755Z,20.97
2018-07-28T00:17:48.067Z,20.98
2018-07-28T00:17:52.275Z,20.97
2018-07-28T00:17:56.478Z,20.97
2018-07-28T00:18:00.788Z,20.98
2018-07-28T00:18:04.933Z,20.98
2018-07-28T00:18:09.254Z,20.97
2018-07-28T00:18:13.557Z,20.97
2018-07-28T00:18:17.752Z,20.97
2018-07-28T00:18:22.069Z,20.96
2018-07-28T00:18:26.172Z,20.97
2018-07-28T00:18:30.380Z,20.97
2018-07-28T00:18:34.687Z,20.97
2018-07-28T00:18:39.002Z,20.97
2018-07-28T00:18:43.205Z,20.97
2018-07-28T00:18:47.512Z,20.96
2018-07-28T00:18:51.613Z,20.96
2018-07-28T00:18:55.815Z,20.96
2018-07-28T00:19:00.128Z,20.95
2018-07-28T00:19:04.141Z,20.95
2018-07-28T00:19:08.353Z,20.95
2018-07-28T00:19:12.668Z,20.95
2018-07-28T00:19:16.876Z,20.94
2018-07-28T00:19:21.180Z,20.94
2018-07-28T00:19:25.274Z,20.94
2018-07-28T00:19:29.480Z,20.93
2018-07-28T00:19:33.475Z,20.93
2018-07-28T00:19:37.567Z,20.94
2018-07-28T00:19:41.878Z,20.94
2018-07-28T00:19:45.972Z,20.93
2018-07-28T00:19:50.065Z,20.93
2018-07-28T00:19:54.273Z,20.93
2018-07-28T00:19:58.603Z,20.93
2018-07-28T00:20:02.817Z,20.93
2018-07-28T00:20:07.017Z,20.93
2018-07-28T00:20:11.231Z,20.93
2018-07-28T00:20:15.537Z,20.93
2018-07-28T00:20:19.846Z,20.93
2018-07-28T00:20:24.151Z,20.92
2018-07-28T00:20:28.459Z,20.93
2018-07-28T00:20:32.769Z,20.92
2018-07-28T00:20:36.969Z,20.92
2018-07-28T00:20:41.059Z,20.93
2018-07-28T00:20:45.268Z,20.92
2018-07-28T00:20:49.584Z,20.92
2018-07-28T00:20:53.950Z,20.92
2018-07-28T00:20:58.259Z,20.92
2018-07-28T00:21:02.452Z,20.92
2018-07-28T00:21:06.455Z,20.92
2018-07-28T00:21:10.566Z,20.91
2018-07-28T00:21:14.876Z,20.92
2018-07-28T00:21:19.222Z,20.91
2018-07-28T00:21:23.213Z,20.92
2018-07-28T00:21:27.418Z,20.92
2018-07-28T00:21:31.726Z,20.91
2018-07-28T00:21:36.030Z,20.91
2018-07-28T00:21:40.243Z,20.9
2018-07-28T00:21:44.552Z,20.9
2018-07-28T00:21:48.546Z,20.91
2018-07-28T00:21:52.853Z,20.9
2018-07-28T00:21:57.054Z,20.89
2018-07-28T00:22:01.299Z,20.9
2018-07-28T00:22:05.396Z,20.9
2018-07-28T00:22:09.600Z,20.89
2018-07-28T00:22:13.910Z,20.89
2018-07-28T00:22:18.210Z,20.89
2018-07-28T00:22:22.535Z,20.89
2018-07-28T00:22:26.857Z,20.88
2018-07-28T00:22:31.066Z,20.88
2018-07-28T00:22:35.266Z,20.88
2018-07-28T00:22:39.366Z,20.88
2018-07-28T00:22:43.682Z,20.88
2018-07-28T00:22:47.890Z,20.88
2018-07-28T00:22:52.091Z,20.87
2018-07-28T00:22:56.399Z,20.87
2018-07-28T00:23:00.612Z,20.87
2018-07-28T00:23:04.762Z,20.87
2018-07-28T00:23:08.751Z,20.86
2018-07-28T00:23:13.055Z,20.86
2018-07-28T00:23:17.373Z,20.86
2018-07-28T00:23:21.577Z,20.86
2018-07-28T00:23:25.770Z,20.85
2018-07-28T00:23:30.078Z,20.86
2018-07-28T00:23:34.174Z,20.85
2018-07-28T00:23:38.382Z,20.85
2018-07-28T00:23:42.591Z,20.86
2018-07-28T00:23:46.788Z,20.85
2018-07-28T00:23:50.885Z,20.85
2018-07-28T00:23:54.884Z,20.85
2018-07-28T00:23:59.090Z,20.85
2018-07-28T00:24:03.312Z,20.85
2018-07-28T00:24:07.415Z,20.84
2018-07-28T00:24:11.722Z,20.84
2018-07-28T00:24:15.816Z,20.85
2018-07-28T00:24:19.915Z,20.84
2018-07-28T00:24:24.222Z,20.83
2018-07-28T00:24:28.320Z,20.84
2018-07-28T00:24:32.521Z,20.85
2018-07-28T00:24:36.616Z,20.84
2018-07-28T00:24:40.716Z,20.84
2018-07-28T00:24:44.917Z,20.84
2018-07-28T00:24:49.117Z,20.84
2018-07-28T00:24:53.314Z,20.84
2018-07-28T00:24:57.628Z,20.83
2018-07-28T00:25:01.985Z,20.83
2018-07-28T00:25:06.188Z,20.83
2018-07-28T00:25:10.403Z,20.83
2018-07-28T00:25:14.604Z,20.83
2018-07-28T00:25:18.909Z,20.83
2018-07-28T00:25:23.005Z,20.83
2018-07-28T00:25:27.101Z,20.83
2018-07-28T00:25:31.301Z,20.83
2018-07-28T00:25:35.512Z,20.82
2018-07-28T00:25:39.712Z,20.82
2018-07-28T00:25:43.917Z,20.82
2018-07-28T00:25:48.119Z,20.82
2018-07-28T00:25:52.319Z,20.82
2018-07-28T00:25:56.526Z,20.82
2018-07-28T00:26:00.733Z,20.81
2018-07-28T00:26:04.983Z,20.82
2018-07-28T00:26:09.219Z,20.81
2018-07-28T00:26:13.208Z,20.82
2018-07-28T00:26:17.526Z,20.81
2018-07-28T00:26:21.620Z,20.81
2018-07-28T00:26:25.822Z,20.82
2018-07-28T00:26:30.125Z,20.81
2018-07-28T00:26:34.326Z,20.82
2018-07-28T00:26:38.640Z,20.82
2018-07-28T00:26:42.843Z,20.81
2018-07-28T00:26:46.944Z,20.81
2018-07-28T00:26:51.147Z,20.81
2018-07-28T00:26:55.257Z,20.81
2018-07-28T00:26:59.458Z,20.8
2018-07-28T00:27:03.566Z,20.8
2018-07-28T00:27:07.767Z,20.8
2018-07-28T00:27:11.972Z,20.8
2018-07-28T00:27:16.273Z,20.8
2018-07-28T00:27:20.587Z,20.8
2018-07-28T00:27:24.799Z,20.79
2018-07-28T00:27:29.022Z,20.79
2018-07-28T00:27:33.234Z,20.79
2018-07-28T00:27:37.548Z,20.79
2018-07-28T00:27:41.744Z,20.78
2018-07-28T00:27:45.950Z,20.79
2018-07-28T00:27:50.256Z,20.78
2018-07-28T00:27:54.569Z,20.79
2018-07-28T00:27:58.665Z,20.78
2018-07-28T00:28:02.882Z,20.78
2018-07-28T00:28:06.875Z,20.78
2018-07-28T00:28:11.077Z,20.78
2018-07-28T00:28:15.381Z,20.78
2018-07-28T00:28:19.589Z,20.77
2018-07-28T00:28:23.726Z,20.78
2018-07-28T00:28:27.931Z,20.78
2018-07-28T00:28:32.130Z,20.78
2018-07-28T00:28:36.265Z,20.77
2018-07-28T00:28:40.468Z,20.77
2018-07-28T00:28:44.667Z,20.77
2018-07-28T00:28:48.766Z,20.76
2018-07-28T00:28:52.977Z,20.76
2018-07-28T00:28:57.188Z,20.76
2018-07-28T00:29:01.495Z,20.77
2018-07-28T00:29:05.701Z,20.76
2018-07-28T00:29:09.689Z,20.76
2018-07-28T00:29:13.995Z,20.76
2018-07-28T00:29:18.200Z,20.76
2018-07-28T00:29:22.504Z,20.76
2018-07-28T00:29:26.546Z,20.76
2018-07-28T00:29:30.753Z,20.76
2018-07-28T00:29:34.952Z,20.76
2018-07-28T00:29:39.077Z,20.76
2018-07-28T00:29:43.281Z,20.76
2018-07-28T00:29:47.490Z,20.75
2018-07-28T00:29:51.810Z,20.75
2018-07-28T00:29:56.117Z,20.75
2018-07-28T00:30:00.319Z,20.75
2018-07-28T00:30:04.527Z,20.75
2018-07-28T00:30:08.516Z,20.75
2018-07-28T00:30:12.719Z,20.75
2018-07-28T00:30:17.022Z,20.75
2018-07-28T00:30:21.011Z,20.76
2018-07-28T00:30:25.313Z,20.75
2018-07-28T00:30:29.516Z,20.75
2018-07-28T00:30:33.620Z,20.75
2018-07-28T00:30:37.819Z,20.76
2018-07-28T00:30:42.026Z,20.75
2018-07-28T00:30:46.348Z,20.75
2018-07-28T00:30:50.660Z,20.75
2018-07-28T00:30:54.860Z,20.75
2018-07-28T00:30:59.064Z,20.75
2018-07-28T00:31:03.056Z,20.76
2018-07-28T00:31:07.361Z,20.75
2018-07-28T00:31:11.561Z,20.75
2018-07-28T00:31:15.872Z,20.74
2018-07-28T00:31:19.969Z,20.75
2018-07-28T00:31:24.064Z,20.75
2018-07-28T00:31:28.370Z,20.75
2018-07-28T00:31:32.477Z,20.76
2018-07-28T00:31:36.783Z,20.75
2018-07-28T00:31:40.877Z,20.75
2018-07-28T00:31:45.180Z,20.75
2018-07-28T00:31:49.490Z,20.75
2018-07-28T00:31:53.379Z,20.74
2018-07-28T00:31:57.579Z,20.75
2018-07-28T00:32:01.886Z,20.74
2018-07-28T00:32:06.089Z,20.74
2018-07-28T00:32:10.183Z,20.75
2018-07-28T00:32:14.498Z,20.75
2018-07-28T00:32:18.694Z,20.74
2018-07-28T00:32:23.004Z,20.75
2018-07-28T00:32:27.308Z,20.74
2018-07-28T00:32:31.611Z,20.74
2018-07-28T00:32:35.815Z,20.74
2018-07-28T00:32:40.014Z,20.73
2018-07-28T00:32:44.360Z,20.73
2018-07-28T00:32:48.570Z,20.73
2018-07-28T00:32:52.665Z,20.74
2018-07-28T00:32:56.863Z,20.73
2018-07-28T00:33:01.068Z,20.73
2018-07-28T00:33:05.057Z,20.73
2018-07-28T00:33:09.367Z,20.73
2018-07-28T00:33:13.572Z,20.71
2018-07-28T00:33:17.669Z,20.72
2018-07-28T00:33:21.874Z,20.71
2018-07-28T00:33:25.974Z,20.72
2018-07-28T00:33:30.333Z,20.72
2018-07-28T00:33:34.648Z,20.72
2018-07-28T00:33:38.966Z,20.71
2018-07-28T00:33:43.162Z,20.71
2018-07-28T00:33:47.366Z,20.71
2018-07-28T00:33:51.667Z,20.71
2018-07-28T00:33:55.980Z,20.71
2018-07-28T00:34:00.187Z,20.7
2018-07-28T00:34:04.332Z,20.71
2018-07-28T00:34:08.533Z,20.72
2018-07-28T00:34:12.732Z,20.71
2018-07-28T00:34:17.054Z,20.7
2018-07-28T00:34:21.259Z,20.71
2018-07-28T00:34:25.246Z,20.7
2018-07-28T00:34:29.343Z,20.7
2018-07-28T00:34:33.542Z,20.7
2018-07-28T00:34:37.756Z,20.7
2018-07-28T00:34:41.862Z,20.7
2018-07-28T00:34:46.186Z,20.69
2018-07-28T00:34:50.385Z,20.7
2018-07-28T00:34:54.584Z,20.69
2018-07-28T00:34:58.898Z,20.69
2018-07-28T00:35:02.936Z,20.7
2018-07-28T00:35:07.033Z,20.69
2018-07-28T00:35:11.238Z,20.69
2018-07-28T00:35:15.543Z,20.69
2018-07-28T00:35:19.856Z,20.69
2018-07-28T00:35:24.172Z,20.69
2018-07-28T00:35:28.366Z,20.68
2018-07-28T00:35:32.460Z,20.69
2018-07-28T00:35:36.760Z,20.69
2018-07-28T00:35:40.958Z,20.68
2018-07-28T00:35:44.952Z,20.68
2018-07-28T00:35:49.151Z,20.69
2018-07-28T00:35:53.242Z,20.69
2018-07-28T00:35:57.448Z,20.69
2018-07-28T00:36:01.756Z,20.67
2018-07-28T00:36:05.747Z,20.69
2018-07-28T00:36:09.846Z,20.68
2018-07-28T00:36:14.152Z,20.67
2018-07-28T00:36:18.391Z,20.69
2018-07-28T00:36:22.703Z,20.67
2018-07-28T00:36:26.910Z,20.67
2018-07-28T00:36:31.113Z,20.68
2018-07-28T00:36:35.325Z,20.67
2018-07-28T00:36:39.631Z,20.66
2018-07-28T00:36:43.833Z,20.67
2018-07-28T00:36:48.135Z,20.68
2018-07-28T00:36:52.344Z,20.68
2018-07-28T00:36:56.442Z,20.67
2018-07-28T00:37:00.648Z,20.67
2018-07-28T00:37:04.952Z,20.67
2018-07-28T00:37:08.939Z,20.67
2018-07-28T00:37:13.138Z,20.67
2018-07-28T00:37:17.352Z,20.67
2018-07-28T00:37:21.448Z,20.67
2018-07-28T00:37:25.660Z,20.67
2018-07-28T00:37:29.862Z,20.66
2018-07-28T00:37:33.967Z,20.67
2018-07-28T00:37:38.270Z,20.66
2018-07-28T00:37:42.581Z,20.67
2018-07-28T00:37:46.720Z,20.67
2018-07-28T00:37:50.927Z,20.66
2018-07-28T00:37:55.130Z,20.67
2018-07-28T00:37:59.330Z,20.67
2018-07-28T00:38:03.642Z,20.66
2018-07-28T00:38:07.856Z,20.67
2018-07-28T00:38:11.845Z,20.67
2018-07-28T00:38:16.056Z,20.67
2018-07-28T00:38:20.152Z,20.67
2018-07-28T00:38:24.459Z,20.68
2018-07-28T00:38:28.663Z,20.67
2018-07-28T00:38:32.757Z,20.67
2018-07-28T00:38:37.056Z,20.66
2018-07-28T00:38:41.261Z,20.67
2018-07-28T00:38:45.469Z,20.66
2018-07-28T00:38:49.566Z,20.67
2018-07-28T00:38:53.658Z,20.67
2018-07-28T00:38:57.863Z,20.67
2018-07-28T00:39:02.173Z,20.67
2018-07-28T00:39:06.270Z,20.67
2018-07-28T00:39:10.591Z,20.67
2018-07-28T00:39:14.791Z,20.67
2018-07-28T00:39:18.986Z,20.67
2018-07-28T00:39:23.099Z,20.67
2018-07-28T00:39:26.986Z,20.67
2018-07-28T00:39:31.185Z,20.67
2018-07-28T00:39:35.283Z,20.67
2018-07-28T00:39:39.382Z,20.66
2018-07-28T00:39:43.693Z,20.67
2018-07-28T00:39:47.996Z,20.67
2018-07-28T00:39:52.196Z,20.67
2018-07-28T00:39:56.523Z,20.67
2018-07-28T00:40:00.834Z,20.66
2018-07-28T00:40:05.097Z,20.67
2018-07-28T00:40:09.295Z,20.67
2018-07-28T00:40:13.510Z,20.66
2018-07-28T00:40:17.714Z,20.67
2018-07-28T00:40:21.813Z,20.66
2018-07-28T00:40:26.011Z,20.67
2018-07-28T00:40:30.319Z,20.66
2018-07-28T00:40:34.531Z,20.66
2018-07-28T00:40:38.846Z,20.66
2018-07-28T00:40:43.156Z,20.66
2018-07-28T00:40:47.259Z,20.67
2018-07-28T00:40:51.565Z,20.67
2018-07-28T00:40:55.875Z,20.66
2018-07-28T00:41:00.078Z,20.66
2018-07-28T00:41:04.490Z,20.66
2018-07-28T00:41:08.587Z,20.66
2018-07-28T00:41:12.789Z,20.67
2018-07-28T00:41:16.988Z,20.67
2018-07-28T00:41:21.083Z,20.67
2018-07-28T00:41:25.395Z,20.66
2018-07-28T00:41:29.599Z,20.67
2018-07-28T00:41:33.848Z,20.66
2018-07-28T00:41:38.164Z,20.66
2018-07-28T00:41:42.267Z,20.66
2018-07-28T00:41:46.572Z,20.66
2018-07-28T00:41:50.674Z,20.66
2018-07-28T00:41:54.879Z,20.66
2018-07-28T00:41:59.082Z,20.66
2018-07-28T00:42:03.391Z,20.67
2018-07-28T00:42:07.387Z,20.65
2018-07-28T00:42:11.719Z,20.66
2018-07-28T00:42:15.820Z,20.66
2018-07-28T00:42:19.917Z,20.66
2018-07-28T00:42:24.132Z,20.67
2018-07-28T00:42:28.352Z,20.67
2018-07-28T00:42:32.557Z,20.66
2018-07-28T00:42:36.919Z,20.66
2018-07-28T00:42:41.223Z,20.66
2018-07-28T00:42:45.537Z,20.65
2018-07-28T00:42:49.755Z,20.67
2018-07-28T00:42:53.952Z,20.67
2018-07-28T00:42:58.052Z,20.66
2018-07-28T00:43:02.255Z,20.66
2018-07-28T00:43:06.251Z,20.65
2018-07-28T00:43:10.447Z,20.66
2018-07-28T00:43:14.752Z,20.66
2018-07-28T00:43:19.055Z,20.67
2018-07-28T00:43:23.358Z,20.66
2018-07-28T00:43:27.559Z,20.66
2018-07-28T00:43:31.768Z,20.66
2018-07-28T00:43:35.972Z,20.66
2018-07-28T00:43:40.280Z,20.66
2018-07-28T00:43:44.484Z,20.66
2018-07-28T00:43:48.473Z,20.67
2018-07-28T00:43:52.667Z,20.66
2018-07-28T00:43:56.762Z,20.66
2018-07-28T00:44:01.065Z,20.66
2018-07-28T00:44:05.162Z,20.67
2018-07-28T00:44:09.260Z,20.67
2018-07-28T00:44:13.479Z,20.66
2018-07-28T00:44:17.680Z,20.67
2018-07-28T00:44:21.881Z,20.67
2018-07-28T00:44:26.111Z,20.67
2018-07-28T00:44:30.317Z,20.67
2018-07-28T00:44:34.627Z,20.67
2018-07-28T00:44:38.932Z,20.67
2018-07-28T00:44:43.237Z,20.67
2018-07-28T00:44:47.435Z,20.67
2018-07-28T00:44:51.634Z,20.67
2018-07-28T00:44:55.843Z,20.67
2018-07-28T00:45:00.155Z,20.67
2018-07-28T00:45:04.368Z,20.68
2018-07-28T00:45:08.579Z,20.67
2018-07-28T00:45:12.897Z,20.68
2018-07-28T00:45:17.204Z,20.68
2018-07-28T00:45:21.406Z,20.68
2018-07-28T00:45:25.715Z,20.68
2018-07-28T00:45:29.822Z,20.68
2018-07-28T00:45:34.025Z,20.68
2018-07-28T00:45:38.119Z,20.68
2018-07-28T00:45:42.108Z,20.68
2018-07-28T00:45:46.409Z,20.69
2018-07-28T00:45:50.511Z,20.68
2018-07-28T00:45:54.712Z,20.68
2018-07-28T00:45:58.916Z,20.69
2018-07-28T00:46:03.118Z,20.69
2018-07-28T00:46:07.218Z,20.69
2018-07-28T00:46:11.526Z,20.69
2018-07-28T00:46:15.842Z,20.69
2018-07-28T00:46:20.147Z,20.68
2018-07-28T00:46:24.455Z,20.69
2018-07-28T00:46:28.757Z,20.69
2018-07-28T00:46:33.067Z,20.69
2018-07-28T00:46:37.371Z,20.69
2018-07-28T00:46:41.675Z,20.69
2018-07-28T00:46:45.985Z,20.69
2018-07-28T00:46:50.289Z,20.69
2018-07-28T00:46:54.389Z,20.69
2018-07-28T00:46:58.390Z,20.69
2018-07-28T00:47:02.650Z,20.7
2018-07-28T00:47:06.967Z,20.69
2018-07-28T00:47:11.277Z,20.69
2018-07-28T00:47:15.587Z,20.69
2018-07-28T00:47:19.688Z,20.7
2018-07-28T00:47:23.892Z,20.69
2018-07-28T00:47:28.104Z,20.69
2018-07-28T00:47:32.413Z,20.7
2018-07-28T00:47:36.504Z,20.7
2018-07-28T00:47:40.812Z,20.69
2018-07-28T00:47:45.132Z,20.69
2018-07-28T00:47:49.441Z,20.7
2018-07-28T00:47:53.748Z,20.69
2018-07-28T00:47:58.059Z,20.69
2018-07-28T00:48:02.169Z,20.7
2018-07-28T00:48:06.491Z,20.69
2018-07-28T00:48:10.688Z,20.7
2018-07-28T00:48:15.000Z,20.7
2018-07-28T00:48:19.312Z,20.7
2018-07-28T00:48:23.512Z,20.7
2018-07-28T00:48:27.719Z,20.7
2018-07-28T00:48:32.031Z,20.7
2018-07-28T00:48:36.378Z,20.7
2018-07-28T00:48:40.589Z,20.7
2018-07-28T00:48:44.896Z,20.7
2018-07-28T00:48:49.206Z,20.7
2018-07-28T00:48:53.303Z,20.7
2018-07-28T00:48:57.293Z,20.7
2018-07-28T00:49:01.392Z,20.7
2018-07-28T00:49:05.504Z,20.7
2018-07-28T00:49:09.594Z,20.7
2018-07-28T00:49:13.690Z,20.7
2018-07-28T00:49:17.888Z,20.7
2018-07-28T00:49:22.195Z,20.71
2018-07-28T00:49:26.182Z,20.7
2018-07-28T00:49:30.486Z,20.7
2018-07-28T00:49:34.689Z,20.71
2018-07-28T00:49:39.035Z,20.71
2018-07-28T00:49:43.347Z,20.7
2018-07-28T00:49:47.550Z,20.71
2018-07-28T00:49:51.755Z,20.71
2018-07-28T00:49:55.953Z,20.71
2018-07-28T00:50:00.053Z,20.71
2018-07-28T00:50:04.256Z,20.71
2018-07-28T00:50:08.142Z,20.72
2018-07-28T00:50:12.464Z,20.71
2018-07-28T00:50:16.778Z,20.71
2018-07-28T00:50:21.089Z,20.71
2018-07-28T00:50:25.390Z,20.71
2018-07-28T00:50:29.496Z,20.72
2018-07-28T00:50:33.812Z,20.71
2018-07-28T00:50:38.012Z,20.72
2018-07-28T00:50:42.210Z,20.71
2018-07-28T00:50:46.410Z,20.71
2018-07-28T00:50:50.611Z,20.72
2018-07-28T00:50:54.828Z,20.71
2018-07-28T00:50:58.711Z,20.72
2018-07-28T00:51:03.025Z,20.71
2018-07-28T00:51:07.222Z,20.72
2018-07-28T00:51:11.313Z,20.71
2018-07-28T00:51:15.512Z,20.71
2018-07-28T00:51:19.818Z,20.71
2018-07-28T00:51:24.122Z,20.71
2018-07-28T00:51:28.328Z,20.72
2018-07-28T00:51:32.641Z,20.71
2018-07-28T00:51:36.946Z,20.72
2018-07-28T00:51:41.156Z,20.71
2018-07-28T00:51:45.249Z,20.72
2018-07-28T00:51:49.554Z,20.72
2018-07-28T00:51:53.749Z,20.71
2018-07-28T00:51:57.841Z,20.72
2018-07-28T00:52:02.054Z,20.72
2018-07-28T00:52:06.157Z,20.72
2018-07-28T00:52:10.357Z,20.72
2018-07-28T00:52:14.558Z,20.72
2018-07-28T00:52:18.651Z,20.72
2018-07-28T00:52:23.006Z,20.73
2018-07-28T00:52:27.218Z,20.73
2018-07-28T00:52:31.544Z,20.72
2018-07-28T00:52:35.854Z,20.73
2018-07-28T00:52:40.164Z,20.73
2018-07-28T00:52:44.470Z,20.72
2018-07-28T00:52:48.775Z,20.74
2018-07-28T00:52:53.080Z,20.73
2018-07-28T00:52:57.173Z,20.74
2018-07-28T00:53:01.392Z,20.73
2018-07-28T00:53:05.599Z,20.73
2018-07-28T00:53:09.696Z,20.74
2018-07-28T00:53:14.010Z,20.74
2018-07-28T00:53:18.317Z,20.74
2018-07-28T00:53:22.672Z,20.74
2018-07-28T00:53:26.977Z,20.74
2018-07-28T00:53:31.298Z,20.74
2018-07-28T00:53:35.388Z,20.74
2018-07-28T00:53:39.695Z,20.74
2018-07-28T00:53:44.004Z,20.74
2018-07-28T00:53:48.322Z,20.73
2018-07-28T00:53:52.626Z,20.74
2018-07-28T00:53:56.835Z,20.73
2018-07-28T00:54:01.148Z,20.74
2018-07-28T00:54:05.382Z,20.74
2018-07-28T00:54:09.604Z,20.74
2018-07-28T00:54:13.927Z,20.74
2018-07-28T00:54:18.214Z,20.74
2018-07-28T00:54:22.430Z,20.75
2018-07-28T00:54:26.531Z,20.74